sensor_id;sensor_type;location;lat;lon;timestamp;pressure;altitude;pressure_sealevel;temperature;humidity
70930;BME280;58588;48.102;19.682;2023-12-20T00:00:05;99618.06;;;1.75;100.00
70930;BME280;58588;48.102;19.682;2023-12-20T00:03:07;99613.28;;;1.57;100.00
70930;BME280;58588;48.102;19.682;2023-12-20T00:06:10;99603.69;;;1.34;100.00
70930;BME280;58588;48.102;19.682;2023-12-20T00:09:12;99600.00;;;1.57;100.00
70930;BME280;58588;48.102;19.682;2023-12-20T00:12:15;99604.69;;;1.65;100.00
70930;BME280;58588;48.102;19.682;2023-12-20T00:15:17;99608.81;;;1.58;100.00
70930;BME280;58588;48.102;19.682;2023-12-20T00:18:19;99601.03;;;1.66;100.00
70930;BME280;58588;48.102;19.682;2023-12-20T00:21:21;99606.00;;;1.71;100.00
70930;BME280;58588;48.102;19.682;2023-12-20T00:24:23;99597.22;;;1.59;100.00
70930;BME280;58588;48.102;19.682;2023-12-20T00:27:26;99598.81;;;1.50;100.00
70930;BME280;58588;48.102;19.682;2023-12-20T00:30:28;99577.03;;;1.24;100.00
70930;BME280;58588;48.102;19.682;2023-12-20T00:33:30;99584.94;;;1.47;100.00
70930;BME280;58588;48.102;19.682;2023-12-20T00:36:32;99571.81;;;1.66;100.00
70930;BME280;58588;48.102;19.682;2023-12-20T00:39:34;99564.19;;;1.41;100.00
70930;BME280;58588;48.102;19.682;2023-12-20T00:42:37;99550.59;;;1.55;100.00
70930;BME280;58588;48.102;19.682;2023-12-20T00:45:39;99541.41;;;1.59;100.00
70930;BME280;58588;48.102;19.682;2023-12-20T00:48:41;99540.31;;;1.61;100.00
70930;BME280;58588;48.102;19.682;2023-12-20T00:51:46;99524.81;;;1.46;100.00
70930;BME280;58588;48.102;19.682;2023-12-20T00:54:48;99518.50;;;1.58;100.00
70930;BME280;58588;48.102;19.682;2023-12-20T00:57:51;99509.78;;;1.56;100.00
70930;BME280;58588;48.102;19.682;2023-12-20T01:00:54;99509.09;;;1.75;100.00
70930;BME280;58588;48.102;19.682;2023-12-20T01:03:56;99505.16;;;1.37;100.00
70930;BME280;58588;48.102;19.682;2023-12-20T01:06:58;99513.00;;;1.71;100.00
70930;BME280;58588;48.102;19.682;2023-12-20T01:10:00;99511.63;;;1.76;100.00
70930;BME280;58588;48.102;19.682;2023-12-20T01:13:03;99508.19;;;1.65;100.00
70930;BME280;58588;48.102;19.682;2023-12-20T01:16:05;99513.56;;;1.53;100.00
70930;BME280;58588;48.102;19.682;2023-12-20T01:19:10;99514.16;;;1.78;100.00
70930;BME280;58588;48.102;19.682;2023-12-20T01:22:13;99500.03;;;1.77;100.00
70930;BME280;58588;48.102;19.682;2023-12-20T01:25:15;99487.56;;;1.78;100.00
70930;BME280;58588;48.102;19.682;2023-12-20T01:28:18;99485.13;;;1.65;100.00
70930;BME280;58588;48.102;19.682;2023-12-20T01:31:20;99478.63;;;1.58;100.00
70930;BME280;58588;48.102;19.682;2023-12-20T01:34:22;99472.03;;;1.52;100.00
70930;BME280;58588;48.102;19.682;2023-12-20T01:37:24;99459.31;;;1.56;100.00
70930;BME280;58588;48.102;19.682;2023-12-20T01:40:27;99464.44;;;1.48;100.00
70930;BME280;58588;48.102;19.682;2023-12-20T01:43:30;99451.03;;;1.49;100.00
70930;BME280;58588;48.102;19.682;2023-12-20T01:46:32;99444.94;;;1.38;100.00
70930;BME280;58588;48.102;19.682;2023-12-20T01:49:34;99429.69;;;1.19;100.00
70930;BME280;58588;48.102;19.682;2023-12-20T01:52:37;99431.84;;;1.25;100.00
70930;BME280;58588;48.102;19.682;2023-12-20T01:55:40;99425.50;;;1.37;100.00
70930;BME280;58588;48.102;19.682;2023-12-20T01:58:45;99429.19;;;1.25;100.00
70930;BME280;58588;48.102;19.682;2023-12-20T02:01:47;99414.59;;;0.98;100.00
70930;BME280;58588;48.102;19.682;2023-12-20T02:04:49;99424.66;;;1.16;100.00
70930;BME280;58588;48.102;19.682;2023-12-20T02:07:52;99428.03;;;1.39;100.00
70930;BME280;58588;48.102;19.682;2023-12-20T02:10:54;99425.91;;;1.53;100.00
70930;BME280;58588;48.102;19.682;2023-12-20T02:13:58;99417.91;;;1.53;100.00
70930;BME280;58588;48.102;19.682;2023-12-20T02:17:00;99413.31;;;1.76;100.00
70930;BME280;58588;48.102;19.682;2023-12-20T02:20:02;99417.69;;;1.87;100.00
70930;BME280;58588;48.102;19.682;2023-12-20T02:23:07;99412.16;;;2.00;100.00
70930;BME280;58588;48.102;19.682;2023-12-20T02:26:09;99422.47;;;1.63;100.00
70930;BME280;58588;48.102;19.682;2023-12-20T02:29:13;99408.97;;;1.13;100.00
70930;BME280;58588;48.102;19.682;2023-12-20T02:32:15;99410.13;;;0.99;100.00
70930;BME280;58588;48.102;19.682;2023-12-20T02:35:18;99406.53;;;1.42;100.00
70930;BME280;58588;48.102;19.682;2023-12-20T02:38:21;99403.22;;;1.70;100.00
70930;BME280;58588;48.102;19.682;2023-12-20T02:41:23;99398.88;;;1.48;100.00
70930;BME280;58588;48.102;19.682;2023-12-20T02:44:25;99392.03;;;1.76;100.00
70930;BME280;58588;48.102;19.682;2023-12-20T02:47:27;99391.56;;;1.92;100.00
70930;BME280;58588;48.102;19.682;2023-12-20T02:50:30;99384.94;;;1.56;100.00
70930;BME280;58588;48.102;19.682;2023-12-20T02:53:33;99382.56;;;1.83;100.00
70930;BME280;58588;48.102;19.682;2023-12-20T02:56:35;99388.84;;;1.82;100.00
70930;BME280;58588;48.102;19.682;2023-12-20T02:59:37;99380.56;;;2.06;100.00
70930;BME280;58588;48.102;19.682;2023-12-20T03:02:39;99382.63;;;2.03;100.00
70930;BME280;58588;48.102;19.682;2023-12-20T03:05:41;99375.34;;;1.95;100.00
70930;BME280;58588;48.102;19.682;2023-12-20T03:08:44;99375.50;;;2.03;100.00
70930;BME280;58588;48.102;19.682;2023-12-20T03:11:46;99358.91;;;2.11;100.00
70930;BME280;58588;48.102;19.682;2023-12-20T03:14:48;99356.59;;;1.97;100.00
70930;BME280;58588;48.102;19.682;2023-12-20T03:17:50;99360.91;;;1.88;100.00
70930;BME280;58588;48.102;19.682;2023-12-20T03:20:51;99355.06;;;1.94;100.00
70930;BME280;58588;48.102;19.682;2023-12-20T03:23:55;99344.66;;;1.81;100.00
70930;BME280;58588;48.102;19.682;2023-12-20T03:26:57;99346.94;;;1.86;100.00
70930;BME280;58588;48.102;19.682;2023-12-20T03:29:59;99345.97;;;1.97;100.00
70930;BME280;58588;48.102;19.682;2023-12-20T03:33:00;99337.44;;;1.93;100.00
70930;BME280;58588;48.102;19.682;2023-12-20T03:36:02;99332.41;;;2.00;100.00
70930;BME280;58588;48.102;19.682;2023-12-20T03:39:06;99310.75;;;1.74;100.00
70930;BME280;58588;48.102;19.682;2023-12-20T03:42:08;99298.84;;;1.58;100.00
70930;BME280;58588;48.102;19.682;2023-12-20T03:45:10;99308.47;;;1.59;100.00
70930;BME280;58588;48.102;19.682;2023-12-20T03:48:12;99310.59;;;1.35;100.00
70930;BME280;58588;48.102;19.682;2023-12-20T03:51:13;99300.88;;;1.45;100.00
70930;BME280;58588;48.102;19.682;2023-12-20T03:54:17;99299.63;;;1.49;100.00
70930;BME280;58588;48.102;19.682;2023-12-20T03:57:19;99288.25;;;1.38;100.00
70930;BME280;58588;48.102;19.682;2023-12-20T04:00:21;99283.88;;;1.27;100.00
70930;BME280;58588;48.102;19.682;2023-12-20T04:03:22;99284.34;;;1.42;100.00
70930;BME280;58588;48.102;19.682;2023-12-20T04:06:24;99296.75;;;1.31;100.00
70930;BME280;58588;48.102;19.682;2023-12-20T04:09:28;99290.72;;;1.60;100.00
70930;BME280;58588;48.102;19.682;2023-12-20T04:12:30;99292.91;;;1.85;100.00
70930;BME280;58588;48.102;19.682;2023-12-20T04:15:32;99291.78;;;1.48;100.00
70930;BME280;58588;48.102;19.682;2023-12-20T04:18:34;99299.69;;;1.59;100.00
70930;BME280;58588;48.102;19.682;2023-12-20T04:21:36;99291.66;;;1.49;100.00
70930;BME280;58588;48.102;19.682;2023-12-20T04:24:40;99294.50;;;1.57;100.00
70930;BME280;58588;48.102;19.682;2023-12-20T04:27:42;99268.53;;;1.71;100.00
70930;BME280;58588;48.102;19.682;2023-12-20T04:30:45;99283.63;;;1.70;100.00
70930;BME280;58588;48.102;19.682;2023-12-20T04:33:46;99252.34;;;1.83;100.00
70930;BME280;58588;48.102;19.682;2023-12-20T04:36:48;99232.47;;;1.78;100.00
70930;BME280;58588;48.102;19.682;2023-12-20T04:39:52;99204.84;;;1.40;100.00
70930;BME280;58588;48.102;19.682;2023-12-20T04:42:54;99203.19;;;1.09;100.00
70930;BME280;58588;48.102;19.682;2023-12-20T04:45:55;99224.28;;;1.20;100.00
70930;BME280;58588;48.102;19.682;2023-12-20T04:48:57;99228.75;;;1.50;100.00
70930;BME280;58588;48.102;19.682;2023-12-20T04:52:11;99220.91;;;1.48;100.00
70930;BME280;58588;48.102;19.682;2023-12-20T04:55:15;99229.22;;;1.65;100.00
70930;BME280;58588;48.102;19.682;2023-12-20T04:58:17;99225.03;;;1.62;100.00
70930;BME280;58588;48.102;19.682;2023-12-20T05:01:19;99235.03;;;1.49;100.00
70930;BME280;58588;48.102;19.682;2023-12-20T05:04:21;99235.88;;;1.49;100.00
70930;BME280;58588;48.102;19.682;2023-12-20T05:07:23;99234.38;;;1.56;100.00
70930;BME280;58588;48.102;19.682;2023-12-20T05:10:26;99232.88;;;1.73;100.00
70930;BME280;58588;48.102;19.682;2023-12-20T05:13:28;99223.19;;;1.53;100.00
70930;BME280;58588;48.102;19.682;2023-12-20T05:16:30;99230.06;;;1.65;100.00
70930;BME280;58588;48.102;19.682;2023-12-20T05:19:32;99226.72;;;1.73;100.00
70930;BME280;58588;48.102;19.682;2023-12-20T05:22:35;99232.31;;;1.79;100.00
70930;BME280;58588;48.102;19.682;2023-12-20T05:25:39;99232.06;;;1.82;100.00
70930;BME280;58588;48.102;19.682;2023-12-20T05:28:41;99229.88;;;1.47;100.00
70930;BME280;58588;48.102;19.682;2023-12-20T05:31:43;99234.66;;;1.53;100.00
70930;BME280;58588;48.102;19.682;2023-12-20T05:34:44;99232.38;;;1.49;100.00
70930;BME280;58588;48.102;19.682;2023-12-20T05:37:46;99233.34;;;1.38;100.00
70930;BME280;58588;48.102;19.682;2023-12-20T05:40:50;99232.44;;;1.58;100.00
70930;BME280;58588;48.102;19.682;2023-12-20T05:43:52;99220.38;;;1.45;100.00
70930;BME280;58588;48.102;19.682;2023-12-20T05:46:54;99214.34;;;1.12;100.00
70930;BME280;58588;48.102;19.682;2023-12-20T05:49:56;99220.22;;;1.46;100.00
70930;BME280;58588;48.102;19.682;2023-12-20T05:53:00;99221.75;;;1.49;100.00
70930;BME280;58588;48.102;19.682;2023-12-20T05:56:04;99208.94;;;1.64;100.00
70930;BME280;58588;48.102;19.682;2023-12-20T05:59:06;99201.81;;;1.64;100.00
70930;BME280;58588;48.102;19.682;2023-12-20T06:02:08;99205.72;;;1.50;100.00
70930;BME280;58588;48.102;19.682;2023-12-20T06:05:10;99203.94;;;1.30;100.00
70930;BME280;58588;48.102;19.682;2023-12-20T06:08:12;99212.31;;;1.66;100.00
70930;BME280;58588;48.102;19.682;2023-12-20T06:11:15;99212.22;;;1.37;100.00
70930;BME280;58588;48.102;19.682;2023-12-20T06:14:17;99203.88;;;1.11;100.00
70930;BME280;58588;48.102;19.682;2023-12-20T06:17:20;99207.44;;;0.69;100.00
70930;BME280;58588;48.102;19.682;2023-12-20T06:20:22;99205.25;;;1.05;100.00
70930;BME280;58588;48.102;19.682;2023-12-20T06:23:25;99198.47;;;1.22;100.00
70930;BME280;58588;48.102;19.682;2023-12-20T06:26:29;99196.56;;;1.33;100.00
70930;BME280;58588;48.102;19.682;2023-12-20T06:29:31;99196.72;;;1.32;100.00
70930;BME280;58588;48.102;19.682;2023-12-20T06:32:35;99201.28;;;1.30;100.00
70930;BME280;58588;48.102;19.682;2023-12-20T06:35:38;99205.56;;;1.61;100.00
70930;BME280;58588;48.102;19.682;2023-12-20T06:38:40;99225.91;;;1.32;100.00
70930;BME280;58588;48.102;19.682;2023-12-20T06:41:44;99217.00;;;1.43;100.00
70930;BME280;58588;48.102;19.682;2023-12-20T06:44:46;99211.97;;;1.49;100.00
70930;BME280;58588;48.102;19.682;2023-12-20T06:47:48;99214.63;;;1.49;100.00
70930;BME280;58588;48.102;19.682;2023-12-20T06:50:50;99228.59;;;1.11;100.00
70930;BME280;58588;48.102;19.682;2023-12-20T06:53:52;99223.88;;;0.84;100.00
70930;BME280;58588;48.102;19.682;2023-12-20T06:56:56;99242.06;;;0.68;100.00
70930;BME280;58588;48.102;19.682;2023-12-20T06:59:58;99239.41;;;0.68;100.00
70930;BME280;58588;48.102;19.682;2023-12-20T07:03:00;99249.97;;;0.89;100.00
70930;BME280;58588;48.102;19.682;2023-12-20T07:06:02;99242.41;;;1.36;100.00
70930;BME280;58588;48.102;19.682;2023-12-20T07:09:04;99239.34;;;1.40;100.00
70930;BME280;58588;48.102;19.682;2023-12-20T07:12:08;99236.69;;;1.40;100.00
70930;BME280;58588;48.102;19.682;2023-12-20T07:15:10;99236.25;;;1.35;100.00
70930;BME280;58588;48.102;19.682;2023-12-20T07:18:12;99237.22;;;1.34;100.00
70930;BME280;58588;48.102;19.682;2023-12-20T07:21:14;99241.13;;;1.30;100.00
70930;BME280;58588;48.102;19.682;2023-12-20T07:24:16;99232.47;;;1.68;100.00
70930;BME280;58588;48.102;19.682;2023-12-20T07:27:19;99219.25;;;1.47;100.00
70930;BME280;58588;48.102;19.682;2023-12-20T07:30:21;99246.63;;;1.48;100.00
70930;BME280;58588;48.102;19.682;2023-12-20T07:33:23;99237.31;;;1.53;100.00
70930;BME280;58588;48.102;19.682;2023-12-20T07:36:26;99229.53;;;1.71;100.00
70930;BME280;58588;48.102;19.682;2023-12-20T07:39:28;99225.06;;;1.81;100.00
70930;BME280;58588;48.102;19.682;2023-12-20T07:42:31;99212.75;;;1.71;100.00
70930;BME280;58588;48.102;19.682;2023-12-20T07:45:33;99221.38;;;1.53;100.00
70930;BME280;58588;48.102;19.682;2023-12-20T07:48:35;99213.16;;;1.26;100.00
70930;BME280;58588;48.102;19.682;2023-12-20T07:51:37;99228.00;;;1.28;100.00
70930;BME280;58588;48.102;19.682;2023-12-20T07:54:40;99213.25;;;1.55;100.00
70930;BME280;58588;48.102;19.682;2023-12-20T07:57:44;99217.59;;;1.56;100.00
70930;BME280;58588;48.102;19.682;2023-12-20T08:00:48;99211.28;;;1.47;100.00
70930;BME280;58588;48.102;19.682;2023-12-20T08:03:50;99201.72;;;1.35;100.00
70930;BME280;58588;48.102;19.682;2023-12-20T08:06:52;99202.88;;;1.42;100.00
70930;BME280;58588;48.102;19.682;2023-12-20T08:09:54;99206.50;;;1.41;100.00
70930;BME280;58588;48.102;19.682;2023-12-20T08:12:58;99186.31;;;1.79;100.00
70930;BME280;58588;48.102;19.682;2023-12-20T08:16:01;99178.72;;;1.55;100.00
70930;BME280;58588;48.102;19.682;2023-12-20T08:19:03;99177.19;;;1.52;100.00
70930;BME280;58588;48.102;19.682;2023-12-20T08:22:05;99187.47;;;1.36;100.00
70930;BME280;58588;48.102;19.682;2023-12-20T08:25:07;99173.53;;;1.53;100.00
70930;BME280;58588;48.102;19.682;2023-12-20T08:28:11;99167.09;;;1.46;100.00
70930;BME280;58588;48.102;19.682;2023-12-20T08:31:14;99179.22;;;1.29;100.00
70930;BME280;58588;48.102;19.682;2023-12-20T08:34:17;99175.56;;;1.21;100.00
70930;BME280;58588;48.102;19.682;2023-12-20T08:37:19;99172.47;;;1.25;100.00
70930;BME280;58588;48.102;19.682;2023-12-20T08:40:21;99166.53;;;1.33;100.00
70930;BME280;58588;48.102;19.682;2023-12-20T08:43:25;99163.38;;;1.68;100.00
70930;BME280;58588;48.102;19.682;2023-12-20T08:46:27;99164.34;;;1.57;100.00
70930;BME280;58588;48.102;19.682;2023-12-20T08:49:29;99163.78;;;1.73;100.00
70930;BME280;58588;48.102;19.682;2023-12-20T08:52:33;99160.88;;;1.76;100.00
70930;BME280;58588;48.102;19.682;2023-12-20T08:55:35;99158.66;;;1.81;100.00
70930;BME280;58588;48.102;19.682;2023-12-20T08:58:40;99163.13;;;1.81;100.00
70930;BME280;58588;48.102;19.682;2023-12-20T09:01:42;99165.09;;;1.98;100.00
70930;BME280;58588;48.102;19.682;2023-12-20T09:04:45;99169.97;;;2.03;100.00
70930;BME280;58588;48.102;19.682;2023-12-20T09:07:47;99169.00;;;2.13;100.00
70930;BME280;58588;48.102;19.682;2023-12-20T09:10:49;99167.03;;;1.86;100.00
70930;BME280;58588;48.102;19.682;2023-12-20T09:13:53;99157.22;;;2.26;100.00
70930;BME280;58588;48.102;19.682;2023-12-20T09:16:57;99152.88;;;2.44;100.00
70930;BME280;58588;48.102;19.682;2023-12-20T09:20:01;99150.94;;;2.07;100.00
70930;BME280;58588;48.102;19.682;2023-12-20T09:23:06;99151.19;;;2.33;100.00
70930;BME280;58588;48.102;19.682;2023-12-20T09:26:08;99152.59;;;2.37;100.00
70930;BME280;58588;48.102;19.682;2023-12-20T09:29:22;99142.13;;;2.36;100.00
70930;BME280;58588;48.102;19.682;2023-12-20T09:32:25;99122.25;;;2.40;100.00
70930;BME280;58588;48.102;19.682;2023-12-20T09:35:27;99154.31;;;2.00;100.00
70930;BME280;58588;48.102;19.682;2023-12-20T09:38:29;99153.34;;;2.10;100.00
70930;BME280;58588;48.102;19.682;2023-12-20T09:41:37;99154.44;;;2.08;100.00
70930;BME280;58588;48.102;19.682;2023-12-20T09:44:43;99157.53;;;2.13;100.00
70930;BME280;58588;48.102;19.682;2023-12-20T09:47:46;99171.66;;;2.23;100.00
70930;BME280;58588;48.102;19.682;2023-12-20T09:50:48;99163.56;;;1.86;100.00
70930;BME280;58588;48.102;19.682;2023-12-20T09:53:54;99168.28;;;2.21;100.00
70930;BME280;58588;48.102;19.682;2023-12-20T09:56:57;99158.38;;;2.23;100.00
70930;BME280;58588;48.102;19.682;2023-12-20T10:00:01;99180.19;;;2.27;100.00
70930;BME280;58588;48.102;19.682;2023-12-20T10:03:06;99171.06;;;2.49;100.00
70930;BME280;58588;48.102;19.682;2023-12-20T10:06:08;99163.94;;;2.49;100.00
70930;BME280;58588;48.102;19.682;2023-12-20T10:09:11;99146.72;;;2.34;100.00
70930;BME280;58588;48.102;19.682;2023-12-20T10:12:14;99138.06;;;2.12;100.00
70930;BME280;58588;48.102;19.682;2023-12-20T10:15:18;99117.44;;;2.44;100.00
70930;BME280;58588;48.102;19.682;2023-12-20T10:18:20;99129.78;;;2.91;100.00
70930;BME280;58588;48.102;19.682;2023-12-20T10:21:23;99101.06;;;2.85;100.00
70930;BME280;58588;48.102;19.682;2023-12-20T10:24:28;99102.00;;;3.21;100.00
70930;BME280;58588;48.102;19.682;2023-12-20T10:27:31;99109.84;;;3.51;100.00
70930;BME280;58588;48.102;19.682;2023-12-20T10:30:34;99090.53;;;3.21;100.00
70930;BME280;58588;48.102;19.682;2023-12-20T10:33:40;99086.03;;;3.21;100.00
70930;BME280;58588;48.102;19.682;2023-12-20T10:36:45;99071.16;;;3.01;100.00
70930;BME280;58588;48.102;19.682;2023-12-20T10:39:50;99044.59;;;2.91;100.00
70930;BME280;58588;48.102;19.682;2023-12-20T10:42:56;99045.66;;;2.99;100.00
70930;BME280;58588;48.102;19.682;2023-12-20T10:46:05;99037.47;;;2.55;100.00
70930;BME280;58588;48.102;19.682;2023-12-20T10:49:08;99041.72;;;3.03;100.00
70930;BME280;58588;48.102;19.682;2023-12-20T10:52:12;99026.81;;;3.10;100.00
70930;BME280;58588;48.102;19.682;2023-12-20T10:55:14;99003.06;;;2.99;100.00
70930;BME280;58588;48.102;19.682;2023-12-20T10:58:18;98989.56;;;3.28;100.00
70930;BME280;58588;48.102;19.682;2023-12-20T11:01:23;98991.53;;;3.43;100.00
70930;BME280;58588;48.102;19.682;2023-12-20T11:04:36;98974.63;;;3.53;100.00
70930;BME280;58588;48.102;19.682;2023-12-20T11:07:43;98988.13;;;4.21;100.00
70930;BME280;58588;48.102;19.682;2023-12-20T11:10:51;98989.72;;;4.40;100.00
70930;BME280;58588;48.102;19.682;2023-12-20T11:14:01;99003.91;;;4.48;100.00
70930;BME280;58588;48.102;19.682;2023-12-20T11:17:10;98993.94;;;4.24;100.00
70930;BME280;58588;48.102;19.682;2023-12-20T11:20:14;98980.53;;;4.76;100.00
70930;BME280;58588;48.102;19.682;2023-12-20T11:23:16;98986.88;;;4.75;100.00
70930;BME280;58588;48.102;19.682;2023-12-20T11:26:22;98979.69;;;4.76;100.00
70930;BME280;58588;48.102;19.682;2023-12-20T11:29:32;98965.38;;;4.43;100.00
70930;BME280;58588;48.102;19.682;2023-12-20T11:32:40;98956.97;;;4.29;100.00
70930;BME280;58588;48.102;19.682;2023-12-20T11:35:48;98933.75;;;4.56;100.00
70930;BME280;58588;48.102;19.682;2023-12-20T11:38:56;98934.59;;;4.56;100.00
70930;BME280;58588;48.102;19.682;2023-12-20T11:42:04;98931.94;;;4.65;100.00
70930;BME280;58588;48.102;19.682;2023-12-20T11:45:09;98943.91;;;5.19;100.00
70930;BME280;58588;48.102;19.682;2023-12-20T11:48:13;98930.88;;;5.16;100.00
70930;BME280;58588;48.102;19.682;2023-12-20T11:51:15;98930.88;;;5.16;100.00
70930;BME280;58588;48.102;19.682;2023-12-20T11:54:18;98939.41;;;5.28;100.00
70930;BME280;58588;48.102;19.682;2023-12-20T11:57:20;98924.19;;;5.04;100.00
70930;BME280;58588;48.102;19.682;2023-12-20T12:00:29;98915.56;;;4.68;100.00
70930;BME280;58588;48.102;19.682;2023-12-20T12:03:33;98908.38;;;4.10;100.00
70930;BME280;58588;48.102;19.682;2023-12-20T12:06:35;98908.56;;;4.67;100.00
70930;BME280;58588;48.102;19.682;2023-12-20T12:09:37;98907.00;;;4.06;100.00
70930;BME280;58588;48.102;19.682;2023-12-20T12:12:39;98907.00;;;4.06;100.00
70930;BME280;58588;48.102;19.682;2023-12-20T12:15:42;98894.53;;;3.80;100.00
70930;BME280;58588;48.102;19.682;2023-12-20T12:18:54;98907.13;;;3.96;100.00
70930;BME280;58588;48.102;19.682;2023-12-20T12:22:04;98916.03;;;4.13;100.00
70930;BME280;58588;48.102;19.682;2023-12-20T12:25:12;98923.53;;;3.57;100.00
70930;BME280;58588;48.102;19.682;2023-12-20T12:28:14;98940.72;;;3.63;100.00
70930;BME280;58588;48.102;19.682;2023-12-20T12:31:17;98930.06;;;3.63;100.00
70930;BME280;58588;48.102;19.682;2023-12-20T12:34:20;98932.34;;;3.58;100.00
70930;BME280;58588;48.102;19.682;2023-12-20T12:37:23;98920.09;;;3.47;100.00
70930;BME280;58588;48.102;19.682;2023-12-20T12:40:25;98927.00;;;2.96;100.00
70930;BME280;58588;48.102;19.682;2023-12-20T12:43:28;98927.16;;;3.12;100.00
70930;BME280;58588;48.102;19.682;2023-12-20T12:46:30;98925.16;;;3.32;100.00
70930;BME280;58588;48.102;19.682;2023-12-20T12:49:36;98926.19;;;3.57;100.00
70930;BME280;58588;48.102;19.682;2023-12-20T12:52:40;98917.00;;;3.78;100.00
70930;BME280;58588;48.102;19.682;2023-12-20T12:55:42;98925.31;;;3.74;100.00
70930;BME280;58588;48.102;19.682;2023-12-20T12:58:44;98929.16;;;3.72;100.00
70930;BME280;58588;48.102;19.682;2023-12-20T13:01:47;98921.81;;;3.74;100.00
70930;BME280;58588;48.102;19.682;2023-12-20T13:04:50;98931.03;;;3.80;100.00
70930;BME280;58588;48.102;19.682;2023-12-20T13:07:52;98919.34;;;3.81;100.00
70930;BME280;58588;48.102;19.682;2023-12-20T13:10:55;98932.84;;;3.79;100.00
70930;BME280;58588;48.102;19.682;2023-12-20T13:13:58;98920.47;;;3.96;100.00
70930;BME280;58588;48.102;19.682;2023-12-20T13:17:01;98926.34;;;4.08;100.00
70930;BME280;58588;48.102;19.682;2023-12-20T13:20:06;98907.09;;;4.22;100.00
70930;BME280;58588;48.102;19.682;2023-12-20T13:23:08;98914.00;;;4.41;100.00
70930;BME280;58588;48.102;19.682;2023-12-20T13:26:10;98911.59;;;4.64;100.00
70930;BME280;58588;48.102;19.682;2023-12-20T13:29:12;98907.38;;;4.61;100.00
70930;BME280;58588;48.102;19.682;2023-12-20T13:32:14;98906.25;;;4.64;100.00
70930;BME280;58588;48.102;19.682;2023-12-20T13:35:18;98909.84;;;4.04;100.00
70930;BME280;58588;48.102;19.682;2023-12-20T13:38:21;98908.03;;;4.13;100.00
70930;BME280;58588;48.102;19.682;2023-12-20T13:41:23;98908.00;;;4.39;100.00
70930;BME280;58588;48.102;19.682;2023-12-20T13:44:25;98910.59;;;4.22;100.00
70930;BME280;58588;48.102;19.682;2023-12-20T13:47:27;98898.16;;;4.05;100.00
70930;BME280;58588;48.102;19.682;2023-12-20T13:50:31;98902.84;;;4.03;100.00
70930;BME280;58588;48.102;19.682;2023-12-20T13:53:33;98912.88;;;4.09;100.00
70930;BME280;58588;48.102;19.682;2023-12-20T13:56:35;98913.03;;;3.82;100.00
70930;BME280;58588;48.102;19.682;2023-12-20T13:59:37;98917.53;;;3.55;100.00
70930;BME280;58588;48.102;19.682;2023-12-20T14:02:39;98923.00;;;4.06;100.00
70930;BME280;58588;48.102;19.682;2023-12-20T14:05:43;98936.25;;;4.23;100.00
70930;BME280;58588;48.102;19.682;2023-12-20T14:08:46;98932.09;;;4.21;100.00
70930;BME280;58588;48.102;19.682;2023-12-20T14:11:48;98933.59;;;4.57;100.00
70930;BME280;58588;48.102;19.682;2023-12-20T14:14:50;98931.00;;;4.82;100.00
70930;BME280;58588;48.102;19.682;2023-12-20T14:17:53;98932.75;;;4.65;100.00
70930;BME280;58588;48.102;19.682;2023-12-20T14:20:56;98929.44;;;4.21;100.00
70930;BME280;58588;48.102;19.682;2023-12-20T14:23:58;98938.56;;;4.18;100.00
70930;BME280;58588;48.102;19.682;2023-12-20T14:27:01;98937.50;;;4.37;100.00
70930;BME280;58588;48.102;19.682;2023-12-20T14:30:08;98932.88;;;4.13;100.00
70930;BME280;58588;48.102;19.682;2023-12-20T14:33:10;98926.63;;;4.30;100.00
70930;BME280;58588;48.102;19.682;2023-12-20T14:36:17;98943.31;;;4.33;100.00
70930;BME280;58588;48.102;19.682;2023-12-20T14:39:19;98947.13;;;3.96;100.00
70930;BME280;58588;48.102;19.682;2023-12-20T14:42:21;98941.09;;;3.94;100.00
70930;BME280;58588;48.102;19.682;2023-12-20T14:45:23;98948.69;;;3.81;100.00
70930;BME280;58588;48.102;19.682;2023-12-20T14:48:26;98943.41;;;4.15;100.00
70930;BME280;58588;48.102;19.682;2023-12-20T14:51:30;98940.25;;;4.19;100.00
70930;BME280;58588;48.102;19.682;2023-12-20T14:54:32;98958.44;;;4.24;100.00
70930;BME280;58588;48.102;19.682;2023-12-20T14:57:34;98954.38;;;4.46;100.00
70930;BME280;58588;48.102;19.682;2023-12-20T15:00:36;98955.31;;;4.28;100.00
70930;BME280;58588;48.102;19.682;2023-12-20T15:03:52;98959.06;;;4.44;100.00
70930;BME280;58588;48.102;19.682;2023-12-20T15:06:59;98969.91;;;4.16;100.00
70930;BME280;58588;48.102;19.682;2023-12-20T15:10:03;98972.31;;;4.27;100.00
70930;BME280;58588;48.102;19.682;2023-12-20T15:13:05;98966.50;;;4.06;100.00
70930;BME280;58588;48.102;19.682;2023-12-20T15:16:07;98968.66;;;3.59;100.00
70930;BME280;58588;48.102;19.682;2023-12-20T15:19:13;98964.84;;;3.79;100.00
70930;BME280;58588;48.102;19.682;2023-12-20T15:22:17;98964.50;;;3.56;100.00
70930;BME280;58588;48.102;19.682;2023-12-20T15:25:19;98965.41;;;3.29;100.00
70930;BME280;58588;48.102;19.682;2023-12-20T15:28:22;98966.72;;;3.07;100.00
70930;BME280;58588;48.102;19.682;2023-12-20T15:31:24;98973.13;;;3.14;100.00
70930;BME280;58588;48.102;19.682;2023-12-20T15:34:27;98974.09;;;3.13;100.00
70930;BME280;58588;48.102;19.682;2023-12-20T15:37:31;98969.75;;;2.94;100.00
70930;BME280;58588;48.102;19.682;2023-12-20T15:40:33;98962.06;;;3.09;100.00
70930;BME280;58588;48.102;19.682;2023-12-20T15:43:35;98966.41;;;3.10;100.00
70930;BME280;58588;48.102;19.682;2023-12-20T15:46:38;98976.69;;;3.23;100.00
70930;BME280;58588;48.102;19.682;2023-12-20T15:49:40;98970.28;;;3.34;100.00
70930;BME280;58588;48.102;19.682;2023-12-20T15:52:44;98960.56;;;3.07;100.00
70930;BME280;58588;48.102;19.682;2023-12-20T15:55:46;98972.13;;;3.15;100.00